Time;durP1;ratioP1;P1;durP2;ratioP2;P2;SDS_P1;SDS_P2;PMS_P1;PMS_P2;Temp;Humidity;BMP_temperature;BMP_pressure;BME280_temperature;BME280_humidity;BME280_pressure;Samples;Min_cycle;Max_cycle;Signal;HPM_P1;HPM_P2
2022/03/16 00:02:00;;;;;;;0.83;0.83;;;;;;;8.38;80.03;101895.63;5076337;28;20957;-72
2022/03/16 00:04:28;;;;;;;0.40;0.30;;;;;;;8.34;80.13;101903.38;5076159;28;20568;-72
2022/03/16 00:06:55;;;;;;;0.40;0.30;;;;;;;8.31;79.88;101896.59;5076456;28;20440;-72
2022/03/16 00:09:21;;;;;;;3.80;3.60;;;;;;;8.27;80.18;101894.66;5076473;28;20485;-72
2022/03/16 00:11:48;;;;;;;0.40;0.23;;;;;;;8.19;81.04;101895.09;5076659;28;20451;-72
2022/03/16 00:14:14;;;;;;;0.40;0.30;;;;;;;8.23;81.06;101904.31;5076124;28;20453;-72
2022/03/16 00:16:40;;;;;;;0.40;0.30;;;;;;;8.17;81.32;101903.44;5076297;28;20495;-72
2022/03/16 00:19:07;;;;;;;0.40;0.30;;;;;;;8.18;81.38;101907.78;5076327;28;20464;-72
2022/03/16 00:21:35;;;;;;;0.40;0.30;;;;;;;8.16;82.00;101906.41;5076211;28;20437;-72
2022/03/16 00:24:02;;;;;;;0.40;0.20;;;;;;;8.10;83.40;101916.31;5075956;28;20822;-72
2022/03/16 00:26:28;;;;;;;0.40;0.30;;;;;;;8.15;83.69;101910.19;5075891;28;20969;-72
2022/03/16 00:28:55;;;;;;;0.40;0.30;;;;;;;8.16;84.16;101912.63;5075984;28;20491;-72
2022/03/16 00:31:21;;;;;;;0.40;0.30;;;;;;;8.18;84.47;101910.47;5076120;28;20446;-72
2022/03/16 00:33:48;;;;;;;0.40;0.30;;;;;;;8.15;84.97;101908.28;5076098;28;20479;-72
2022/03/16 00:36:14;;;;;;;0.40;0.30;;;;;;;8.17;85.04;101911.53;5076047;28;20469;-72
2022/03/16 00:38:42;;;;;;;0.40;0.30;;;;;;;8.22;85.20;101903.50;5075565;28;20836;-72
2022/03/16 00:41:09;;;;;;;0.40;0.30;;;;;;;8.25;85.08;101902.19;5075873;28;20441;-72
2022/03/16 00:43:36;;;;;;;0.40;0.27;;;;;;;8.25;85.35;101903.00;5075830;28;20447;-72
2022/03/16 00:46:02;;;;;;;0.40;0.30;;;;;;;8.26;85.39;101896.53;5075635;28;20465;-72
2022/03/16 00:48:29;;;;;;;0.63;0.60;;;;;;;8.28;85.45;101899.00;5075603;28;20488;-72
2022/03/16 00:50:56;;;;;;;0.40;0.30;;;;;;;8.19;85.32;101890.53;5075360;28;20959;-72
2022/03/16 00:53:22;;;;;;;0.50;0.47;;;;;;;8.18;85.02;101896.97;5075612;28;20491;-72
2022/03/16 00:55:50;;;;;;;0.40;0.27;;;;;;;8.15;84.81;101902.91;5075188;28;21005;-71
2022/03/16 00:58:17;;;;;;;0.40;0.30;;;;;;;8.15;84.80;101904.78;5075604;28;20484;-72
2022/03/16 01:00:43;;;;;;;0.40;0.30;;;;;;;8.09;84.64;101907.41;5075543;28;20437;-72
2022/03/16 01:03:10;;;;;;;0.40;0.30;;;;;;;8.03;84.64;101915.69;5075369;28;20457;-71
2022/03/16 01:05:36;;;;;;;0.40;0.30;;;;;;;7.96;84.31;101909.66;5074951;28;20465;-71
2022/03/16 01:08:03;;;;;;;0.40;0.30;;;;;;;7.90;84.93;101913.38;5075327;28;20489;-71
2022/03/16 01:10:29;;;;;;;0.40;0.30;;;;;;;7.81;85.79;101921.88;5075293;28;20441;-71
2022/03/16 01:12:57;;;;;;;0.40;0.30;;;;;;;7.78;85.59;101913.47;5075005;28;20856;-71
2022/03/16 01:15:24;;;;;;;0.40;0.30;;;;;;;7.75;85.64;101914.00;5075163;28;20465;-72
2022/03/16 01:17:50;;;;;;;0.40;0.30;;;;;;;7.63;86.50;101908.69;5075211;28;20465;-71
2022/03/16 01:20:17;;;;;;;0.40;0.30;;;;;;;7.61;86.67;101910.81;5074975;28;20992;-71
2022/03/16 01:22:43;;;;;;;0.40;0.30;;;;;;;7.56;87.17;101916.13;5075202;28;20448;-71
2022/03/16 01:25:10;;;;;;;0.40;0.30;;;;;;;7.54;87.40;101916.38;5074652;28;20530;-71
2022/03/16 01:27:36;;;;;;;0.40;0.30;;;;;;;7.46;87.40;101910.59;5074969;28;20437;-71
2022/03/16 01:30:06;;;;;;;0.40;0.30;;;;;;;7.31;87.75;101912.00;5074695;28;20862;-71
2022/03/16 01:32:32;;;;;;;0.40;0.30;;;;;;;7.23;87.98;101917.00;5074636;28;20437;-71
2022/03/16 01:34:59;;;;;;;0.40;0.33;;;;;;;7.17;87.80;101917.97;5074820;28;20462;-71
2022/03/16 01:37:25;;;;;;;0.40;0.30;;;;;;;7.01;88.59;101916.91;5074932;28;20453;-71
2022/03/16 01:39:52;;;;;;;0.40;0.30;;;;;;;6.97;88.49;101924.66;5074834;28;20441;-70
2022/03/16 01:42:20;;;;;;;0.50;0.30;;;;;;;6.87;88.88;101919.09;5074771;28;20581;-71
2022/03/16 01:44:48;;;;;;;0.40;0.30;;;;;;;6.76;89.28;101928.88;5074588;28;20526;-71
2022/03/16 01:47:17;;;;;;;0.40;0.30;;;;;;;6.68;88.86;101928.44;5074391;28;20499;-71
2022/03/16 01:49:45;;;;;;;0.40;0.30;;;;;;;6.65;89.26;101928.94;5074483;28;20493;-70
2022/03/16 01:52:14;;;;;;;0.40;0.30;;;;;;;6.44;90.48;101930.44;5074230;28;20930;-70
2022/03/16 01:54:41;;;;;;;0.40;0.30;;;;;;;6.43;90.04;101942.25;5074394;28;20535;-70
2022/03/16 01:57:09;;;;;;;0.40;0.30;;;;;;;6.38;89.06;101939.47;5074561;28;20467;-70
2022/03/16 01:59:36;;;;;;;0.40;0.30;;;;;;;6.26;87.90;101943.00;5074427;28;20441;-70
2022/03/16 02:02:03;;;;;;;3.60;3.40;;;;;;;6.21;87.74;101944.78;5074386;28;20445;-71
2022/03/16 02:04:31;;;;;;;0.40;0.30;;;;;;;6.10;87.89;101943.72;5074230;28;20461;-70
2022/03/16 02:06:58;;;;;;;0.40;0.30;;;;;;;5.90;88.51;101943.28;5074183;28;20444;-70
2022/03/16 02:09:25;;;;;;;0.40;0.30;;;;;;;5.73;88.95;101945.88;5074168;28;20538;-71
2022/03/16 02:11:51;;;;;;;0.40;0.30;;;;;;;5.73;89.07;101959.31;5074219;28;20438;-70
2022/03/16 02:14:18;;;;;;;0.40;0.30;;;;;;;5.60;89.58;101952.31;5074304;28;20466;-70
2022/03/16 02:16:45;;;;;;;0.40;0.30;;;;;;;5.60;90.09;101959.56;5073229;28;20465;-71
2022/03/16 02:19:12;;;;;;;0.40;0.30;;;;;;;5.59;90.53;101965.97;5074112;28;20438;-70
2022/03/16 02:21:41;;;;;;;0.40;0.30;;;;;;;5.52;91.07;101968.78;5073686;28;20448;-70
2022/03/16 02:24:09;;;;;;;0.40;0.30;;;;;;;5.40;92.05;101971.47;5073608;28;20468;-72
2022/03/16 02:26:36;;;;;;;0.40;0.30;;;;;;;5.39;92.14;101980.56;5073796;28;20429;-73
2022/03/16 02:29:03;;;;;;;0.40;0.30;;;;;;;5.41;92.06;101977.66;5073421;28;21025;-71
2022/03/16 02:31:30;;;;;;;0.40;0.30;;;;;;;5.40;92.33;101981.38;5073781;28;20467;-72
2022/03/16 02:33:56;;;;;;;0.40;0.30;;;;;;;5.23;93.44;101981.25;5073735;28;20446;-72
2022/03/16 02:36:23;;;;;;;0.40;0.30;;;;;;;5.23;93.23;101987.44;5073412;28;21037;-71
2022/03/16 02:38:49;;;;;;;0.40;0.30;;;;;;;5.25;93.01;101989.88;5073706;28;20442;-72
2022/03/16 02:41:17;;;;;;;0.40;0.30;;;;;;;5.16;93.39;102002.00;5073593;28;20450;-72
2022/03/16 02:43:43;;;;;;;0.40;0.30;;;;;;;5.24;92.81;102004.38;5073719;28;20445;-72
2022/03/16 02:46:10;;;;;;;0.40;0.30;;;;;;;5.21;92.15;102005.63;5073555;28;20538;-72
2022/03/16 02:48:36;;;;;;;0.40;0.30;;;;;;;5.09;92.16;102012.00;5073457;28;20481;-72
2022/03/16 02:51:03;;;;;;;0.40;0.30;;;;;;;4.94;92.54;102015.94;5073429;28;20449;-72
2022/03/16 02:53:29;;;;;;;0.40;0.30;;;;;;;4.94;92.98;102021.31;5073492;28;20437;-72
2022/03/16 02:55:56;;;;;;;0.40;0.30;;;;;;;4.94;92.29;102020.50;5073419;28;20465;-72
2022/03/16 02:58:24;;;;;;;0.40;0.30;;;;;;;4.88;91.20;102032.97;5073240;28;20508;-72
2022/03/16 03:00:50;;;;;;;0.40;0.30;;;;;;;4.73;91.25;102030.66;5073428;28;20448;-72
2022/03/16 03:03:18;;;;;;;0.40;0.30;;;;;;;4.66;91.69;102045.25;5073383;28;20461;-72
2022/03/16 03:05:44;;;;;;;0.40;0.30;;;;;;;4.49;91.12;102039.66;5073278;28;20876;-72
2022/03/16 03:08:11;;;;;;;0.40;0.30;;;;;;;4.47;92.39;102055.13;5073285;28;20437;-71
2022/03/16 03:10:37;;;;;;;0.40;0.30;;;;;;;4.47;91.76;102058.66;5073248;28;20444;-71
2022/03/16 03:13:04;;;;;;;0.40;0.30;;;;;;;4.44;91.99;102060.97;5073290;28;20826;-71
2022/03/16 03:15:31;;;;;;;0.40;0.30;;;;;;;4.42;91.42;102065.72;5073306;28;20473;-71
2022/03/16 03:17:58;;;;;;;0.40;0.30;;;;;;;4.43;91.39;102062.84;5073233;28;20453;-72
2022/03/16 03:20:24;;;;;;;0.40;0.30;;;;;;;4.36;93.64;102078.19;5073162;28;20441;-70
2022/03/16 03:22:51;;;;;;;2.70;2.60;;;;;;;4.30;94.48;102079.06;5073109;28;20433;-71
2022/03/16 03:25:17;;;;;;;1.00;1.00;;;;;;;4.27;95.89;102085.69;5072751;28;21017;-71
2022/03/16 03:27:44;;;;;;;0.40;0.30;;;;;;;4.23;96.94;102086.34;5072829;28;20445;-71
2022/03/16 03:30:11;;;;;;;0.40;0.30;;;;;;;4.27;96.92;102096.41;5077273;28;20485;-71
2022/03/16 03:32:39;;;;;;;0.60;0.60;;;;;;;4.43;95.90;102094.22;5077238;28;20441;-71
2022/03/16 03:35:07;;;;;;;0.40;0.30;;;;;;;4.51;94.81;102096.56;5077142;28;20464;-70
2022/03/16 03:37:33;;;;;;;2.67;2.13;;;;;;;4.26;94.92;102100.16;5077399;28;20443;-71
2022/03/16 03:40:00;;;;;;;0.40;0.30;;;;;;;4.32;95.05;102095.75;5077078;28;20436;-71
2022/03/16 03:42:26;;;;;;;0.40;0.40;;;;;;;4.24;94.97;102093.34;5077111;28;20444;-71
2022/03/16 03:44:53;;;;;;;0.40;0.30;;;;;;;4.22;95.34;102108.84;5076957;28;20457;-71
2022/03/16 03:47:19;;;;;;;0.40;0.30;;;;;;;4.32;94.74;102103.81;5076948;28;20452;-71
2022/03/16 03:49:47;;;;;;;0.40;0.30;;;;;;;4.25;94.67;102111.91;5076497;28;20894;-71
2022/03/16 03:52:13;;;;;;;0.40;0.30;;;;;;;4.26;94.56;102115.41;5076888;28;20502;-71
2022/03/16 03:54:40;;;;;;;0.40;0.30;;;;;;;4.25;94.10;102116.44;5076508;28;20445;-71
2022/03/16 03:57:07;;;;;;;0.40;0.30;;;;;;;4.20;93.95;102110.91;5076812;28;20529;-71
2022/03/16 03:59:33;;;;;;;0.57;0.57;;;;;;;4.14;94.07;102118.00;5076784;28;20490;-71
2022/03/16 04:02:00;;;;;;;0.40;0.30;;;;;;;4.04;93.40;102123.03;5076895;28;20440;-71
2022/03/16 04:04:27;;;;;;;0.40;0.30;;;;;;;4.07;92.67;102122.59;5076855;28;20469;-73
2022/03/16 04:06:55;;;;;;;0.40;0.30;;;;;;;3.99;92.18;102125.56;5076731;28;20448;-70
2022/03/16 04:09:21;;;;;;;0.40;0.30;;;;;;;3.88;91.67;102132.44;5076586;28;20853;-71
2022/03/16 04:11:48;;;;;;;0.40;0.30;;;;;;;3.86;91.71;102141.75;5076173;28;20981;-72
2022/03/16 04:14:16;;;;;;;0.40;0.30;;;;;;;3.71;93.33;102128.66;5078001;28;20453;-72
2022/03/16 04:16:42;;;;;;;0.50;0.40;;;;;;;3.71;92.77;102137.50;5076336;28;20456;-72
2022/03/16 04:19:08;;;;;;;0.40;0.40;;;;;;;3.63;92.03;102137.78;5076602;28;20524;-71
2022/03/16 04:21:35;;;;;;;0.70;0.70;;;;;;;3.53;92.94;102143.59;5076301;28;20448;-71
2022/03/16 04:24:03;;;;;;;0.40;0.30;;;;;;;3.38;95.22;102147.63;5076025;28;20539;-71
2022/03/16 04:26:29;;;;;;;0.40;0.30;;;;;;;3.36;94.44;102147.81;5076229;28;20507;-71
2022/03/16 04:28:56;;;;;;;0.40;0.30;;;;;;;3.42;94.16;102156.88;5076134;28;20477;-71
2022/03/16 04:31:22;;;;;;;0.40;0.30;;;;;;;3.28;93.80;102146.22;5076101;28;20449;-71
2022/03/16 04:33:49;;;;;;;0.50;0.50;;;;;;;3.21;94.09;102150.78;5076046;28;20844;-70
2022/03/16 04:36:15;;;;;;;0.40;0.40;;;;;;;3.32;94.43;102153.81;5075922;28;20461;-74
2022/03/16 04:38:42;;;;;;;0.40;0.30;;;;;;;3.39;94.39;102157.28;5075925;28;20444;-74
2022/03/16 04:41:10;;;;;;;0.40;0.30;;;;;;;3.40;94.73;102159.75;5075050;28;20446;-69
2022/03/16 04:43:36;;;;;;;0.40;0.30;;;;;;;3.24;95.64;102169.09;5075939;28;20446;-71
2022/03/16 04:46:04;;;;;;;0.40;0.30;;;;;;;3.21;96.28;102158.81;5075814;28;20461;-70
2022/03/16 04:48:30;;;;;;;0.40;0.30;;;;;;;3.20;97.22;102175.91;5075805;28;20492;-70
2022/03/16 04:50:57;;;;;;;0.40;0.30;;;;;;;3.20;97.92;102172.41;5075553;28;20973;-70
2022/03/16 04:53:23;;;;;;;0.97;0.97;;;;;;;3.24;98.25;102182.50;5076077;28;20445;-70
2022/03/16 04:55:50;;;;;;;0.50;0.50;;;;;;;3.18;99.18;102185.19;5075710;28;20480;-70
2022/03/16 04:58:17;;;;;;;14.63;4.23;;;;;;;3.13;99.01;102180.47;5075726;28;20448;-70
2022/03/16 05:00:44;;;;;;;0.40;0.30;;;;;;;3.27;98.31;102182.03;5075620;28;20442;-74
2022/03/16 05:03:10;;;;;;;0.53;0.53;;;;;;;3.45;96.50;102188.56;5075608;28;20449;-73
2022/03/16 05:05:36;;;;;;;0.40;0.30;;;;;;;3.44;93.34;102192.28;5075605;28;20866;-73
2022/03/16 05:08:03;;;;;;;0.40;0.30;;;;;;;3.36;93.14;102179.13;5075606;28;20449;-74
2022/03/16 05:10:29;;;;;;;0.40;0.30;;;;;;;3.24;93.18;102198.56;5075386;28;20477;-73
2022/03/16 05:12:56;;;;;;;0.40;0.30;;;;;;;3.22;93.19;102197.94;5075153;28;20947;-74
2022/03/16 05:15:24;;;;;;;0.40;0.30;;;;;;;3.10;92.30;102196.97;5075302;28;20469;-73
2022/03/16 05:17:50;;;;;;;0.40;0.30;;;;;;;3.00;93.04;102192.03;5075102;28;20445;-73
2022/03/16 05:20:17;;;;;;;0.40;0.40;;;;;;;2.94;92.84;102197.41;5074969;28;20943;-74
2022/03/16 05:22:44;;;;;;;0.40;0.30;;;;;;;2.91;93.38;102197.81;5075422;28;20544;-73
2022/03/16 05:25:12;;;;;;;0.40;0.30;;;;;;;2.88;92.44;102201.75;5075137;28;20461;-73
2022/03/16 05:27:39;;;;;;;0.40;0.30;;;;;;;2.85;92.53;102209.38;5075821;28;20519;-73
2022/03/16 05:30:07;;;;;;;0.40;0.30;;;;;;;2.69;93.12;102210.63;5075191;28;20485;-73
2022/03/16 05:32:35;;;;;;;0.40;0.30;;;;;;;2.65;93.25;102204.88;5075153;28;20486;-73
2022/03/16 05:35:03;;;;;;;4.63;3.90;;;;;;;2.62;93.43;102207.16;5074882;28;20531;-73
2022/03/16 05:37:30;;;;;;;1.63;1.53;;;;;;;2.72;92.92;102205.69;5075068;28;20446;-73
2022/03/16 05:39:56;;;;;;;0.40;0.40;;;;;;;2.67;91.29;102205.50;5074833;28;20441;-74
2022/03/16 05:42:22;;;;;;;0.40;0.30;;;;;;;2.57;92.32;102201.59;5074564;28;20449;-74
2022/03/16 05:44:54;;;;;;;1.80;1.70;;;;;;;2.51;94.38;102205.91;5074348;28;21019;-74
2022/03/16 05:47:21;;;;;;;0.40;0.30;;;;;;;2.53;96.27;102201.19;5074673;28;20441;-74
2022/03/16 05:49:49;;;;;;;0.40;0.30;;;;;;;2.52;96.67;102205.72;5074678;28;20835;-74
2022/03/16 05:52:16;;;;;;;3.67;2.20;;;;;;;2.69;95.38;102205.28;5074315;28;20440;-75
2022/03/16 05:54:43;;;;;;;0.40;0.30;;;;;;;2.69;93.78;102210.63;5074755;28;20473;-75
2022/03/16 05:57:13;;;;;;;0.40;0.30;;;;;;;2.80;93.64;102203.84;5074507;28;20472;-74
2022/03/16 05:59:40;;;;;;;0.40;0.30;;;;;;;2.78;92.68;102204.84;5074630;28;20437;-75
2022/03/16 06:02:06;;;;;;;0.40;0.30;;;;;;;2.73;93.26;102211.88;5074179;28;21014;-74
2022/03/16 06:04:33;;;;;;;0.40;0.30;;;;;;;2.80;93.71;102217.22;5074177;28;20458;-73
2022/03/16 06:07:00;;;;;;;1.57;1.53;;;;;;;2.83;94.03;102225.63;5074578;28;20445;-73
2022/03/16 06:09:27;;;;;;;0.40;0.30;;;;;;;2.77;95.00;102223.78;5073967;28;21017;-74
2022/03/16 06:11:53;;;;;;;0.40;0.30;;;;;;;2.85;94.57;102225.44;5074314;28;20494;-73
2022/03/16 06:14:20;;;;;;;0.40;0.30;;;;;;;2.86;94.62;102227.06;5074191;28;20461;-73
2022/03/16 06:16:47;;;;;;;0.40;0.30;;;;;;;2.91;94.62;102219.25;5074208;28;20438;-72
2022/03/16 06:19:13;;;;;;;0.40;0.30;;;;;;;2.89;95.91;102222.13;5074153;28;20540;-73
2022/03/16 06:21:40;;;;;;;0.40;0.30;;;;;;;3.00;96.23;102217.97;5074058;28;20524;-73
2022/03/16 06:24:08;;;;;;;0.40;0.30;;;;;;;3.10;95.43;102223.72;5073603;28;20465;-72
2022/03/16 06:26:34;;;;;;;0.50;0.50;;;;;;;3.09;96.61;102221.25;5073850;28;20437;-72
2022/03/16 06:29:01;;;;;;;0.57;0.53;;;;;;;3.18;97.44;102228.00;5074095;28;20818;-72
2022/03/16 06:31:27;;;;;;;0.40;0.30;;;;;;;3.31;96.88;102225.28;5073782;28;20438;-72
2022/03/16 06:33:54;;;;;;;0.40;0.30;;;;;;;3.46;98.42;102236.56;5073721;28;20437;-72
2022/03/16 06:36:20;;;;;;;0.40;0.30;;;;;;;3.62;99.40;102243.28;5073629;28;20464;-72
2022/03/16 06:38:46;;;;;;;0.40;0.30;;;;;;;3.81;100.00;102246.94;5073375;28;20448;-73
2022/03/16 06:41:14;;;;;;;0.40;0.30;;;;;;;3.97;100.00;102241.03;5073574;28;20441;-73
2022/03/16 06:43:41;;;;;;;0.60;0.60;;;;;;;4.20;99.65;102236.97;5073606;28;20437;-73
2022/03/16 06:46:08;;;;;;;1.53;1.43;;;;;;;4.36;99.70;102238.31;5073687;28;20548;-74
2022/03/16 06:48:34;;;;;;;0.40;0.30;;;;;;;4.49;100.00;102236.31;5073536;28;20456;-73
2022/03/16 06:51:00;;;;;;;1.13;1.13;;;;;;;4.63;99.96;102245.06;5073445;28;20484;-73
2022/03/16 06:53:28;;;;;;;0.60;0.57;;;;;;;4.72;100.00;102232.19;5073789;28;20445;-73
2022/03/16 06:55:54;;;;;;;0.40;0.30;;;;;;;4.80;100.00;102245.34;5073071;28;21002;-73
2022/03/16 06:58:22;;;;;;;0.40;0.30;;;;;;;4.92;100.00;102242.75;5073324;28;20452;-74
2022/03/16 07:00:48;;;;;;;0.40;0.30;;;;;;;4.96;100.00;102243.97;5073526;28;20433;-74
2022/03/16 07:03:15;;;;;;;0.40;0.30;;;;;;;5.06;100.00;102244.25;5072958;28;20520;-75
2022/03/16 07:05:42;;;;;;;0.40;0.30;;;;;;;5.17;100.00;102240.00;5072888;28;20982;-74
2022/03/16 07:08:11;;;;;;;0.40;0.30;;;;;;;5.28;99.98;102250.00;5073342;28;20460;-74
2022/03/16 07:10:40;;;;;;;0.40;0.30;;;;;;;5.38;99.56;102249.47;5072915;28;20481;-74
2022/03/16 07:13:07;;;;;;;0.40;0.30;;;;;;;5.46;99.21;102246.50;5073306;28;20449;-73
2022/03/16 07:15:36;;;;;;;0.40;0.40;;;;;;;5.54;98.90;102256.94;5073121;28;20476;-73
2022/03/16 07:18:03;;;;;;;0.40;0.30;;;;;;;5.61;98.96;102257.66;5073227;28;20494;-76
2022/03/16 07:20:29;;;;;;;0.40;0.30;;;;;;;5.67;98.99;102251.38;5073339;28;20441;-77
2022/03/16 07:23:03;;;;;;;0.40;0.20;;;;;;;5.70;99.42;102248.22;5073096;28;20452;-69
2022/03/16 07:25:30;;;;;;;1.90;1.80;;;;;;;5.75;99.41;102248.34;5073016;28;20468;-72
2022/03/16 07:27:56;;;;;;;0.40;0.30;;;;;;;5.82;99.50;102246.41;5073112;28;20437;-73
2022/03/16 07:30:23;;;;;;;0.40;0.30;;;;;;;5.93;99.16;102250.25;5072671;28;20943;-73
2022/03/16 07:32:51;;;;;;;0.40;0.30;;;;;;;6.05;99.28;102252.94;5073012;28;20935;-79
2022/03/16 07:35:18;;;;;;;0.50;0.50;;;;;;;6.14;99.64;102259.66;5074623;28;20982;-77
2022/03/16 07:37:46;;;;;;;0.40;0.30;;;;;;;6.29;99.57;102260.03;5072730;28;20939;-77
2022/03/16 07:40:13;;;;;;;0.40;0.30;;;;;;;6.46;99.21;102254.81;5073347;28;20456;-75
2022/03/16 07:42:45;;;;;;;0.40;0.30;;;;;;;6.55;99.02;102257.97;5073254;28;20448;-74
2022/03/16 07:45:12;;;;;;;0.40;0.30;;;;;;;6.60;99.11;102258.09;5072987;28;20497;-74
2022/03/16 07:47:38;;;;;;;0.40;0.30;;;;;;;6.73;98.87;102259.72;5072924;28;20448;-75
2022/03/16 07:50:07;;;;;;;0.40;0.30;;;;;;;6.77;98.09;102264.44;5072840;28;20534;-74
2022/03/16 07:52:33;;;;;;;0.40;0.30;;;;;;;6.83;97.61;102266.19;5072932;28;20445;-72
2022/03/16 07:55:00;;;;;;;0.40;0.30;;;;;;;6.87;97.13;102277.31;5072768;28;20488;-73
2022/03/16 07:57:26;;;;;;;0.40;0.30;;;;;;;6.92;96.81;102284.69;5072793;28;20445;-73
2022/03/16 07:59:54;;;;;;;0.40;0.30;;;;;;;6.98;96.19;102289.13;5072871;28;20441;-74
2022/03/16 08:02:21;;;;;;;0.40;0.30;;;;;;;6.95;95.66;102293.13;5072950;28;20495;-76
2022/03/16 08:04:48;;;;;;;0.40;0.30;;;;;;;6.97;95.25;102298.28;5073053;28;20557;-74
2022/03/16 08:07:16;;;;;;;0.40;0.20;;;;;;;7.01;94.54;102310.22;5072767;28;20453;-73
2022/03/16 08:09:42;;;;;;;0.40;0.30;;;;;;;7.04;94.17;102313.28;5073026;28;20445;-72
2022/03/16 08:12:09;;;;;;;0.40;0.30;;;;;;;7.05;93.23;102312.22;5072785;28;20473;-72
2022/03/16 08:14:35;;;;;;;0.87;0.87;;;;;;;7.06;93.05;102327.31;5072831;28;20465;-77
2022/03/16 08:17:02;;;;;;;0.40;0.30;;;;;;;7.13;93.00;102329.91;5076416;28;20495;-74
2022/03/16 08:19:28;;;;;;;0.87;0.87;;;;;;;7.11;92.54;102326.63;5076507;28;20436;-74
2022/03/16 08:21:55;;;;;;;0.40;0.30;;;;;;;7.14;92.41;102315.38;5076102;28;20816;-73
2022/03/16 08:24:23;;;;;;;0.50;0.40;;;;;;;7.15;92.62;102322.41;5075980;28;20848;-74
2022/03/16 08:26:49;;;;;;;0.40;0.30;;;;;;;7.17;92.14;102331.09;5076371;28;20455;-74
2022/03/16 08:29:16;;;;;;;0.40;0.30;;;;;;;7.18;91.85;102327.31;5076281;28;20476;-73
2022/03/16 08:31:42;;;;;;;0.80;0.80;;;;;;;7.21;91.63;102331.41;5076228;28;20520;-73
2022/03/16 08:34:09;;;;;;;0.40;0.27;;;;;;;7.29;92.12;102333.75;5075912;28;20445;-74
2022/03/16 08:36:37;;;;;;;0.60;0.57;;;;;;;7.36;92.32;102334.47;5076186;28;20452;-72
2022/03/16 08:39:03;;;;;;;0.40;0.30;;;;;;;7.34;92.58;102331.97;5076166;28;20536;-73
2022/03/16 08:41:32;;;;;;;0.40;0.30;;;;;;;7.41;92.54;102336.44;5076110;28;20433;-72
2022/03/16 08:43:59;;;;;;;0.40;0.30;;;;;;;7.45;92.49;102335.75;5076289;28;20453;-74
2022/03/16 08:46:25;;;;;;;1.63;1.53;;;;;;;7.46;91.99;102333.84;5075994;28;20480;-73
2022/03/16 08:48:52;;;;;;;0.40;0.30;;;;;;;7.47;92.07;102336.31;5075968;28;20532;-73
2022/03/16 08:51:19;;;;;;;0.40;0.40;;;;;;;7.54;91.96;102333.50;5076000;28;20488;-73
2022/03/16 08:53:45;;;;;;;0.40;0.30;;;;;;;7.60;91.77;102343.31;5075886;28;20452;-72
2022/03/16 08:56:13;;;;;;;0.50;0.43;;;;;;;7.54;92.05;102346.97;5075770;28;20476;-72
2022/03/16 08:58:41;;;;;;;0.40;0.30;;;;;;;7.54;92.09;102341.59;5075727;28;20833;-71
2022/03/16 09:01:07;;;;;;;0.40;0.30;;;;;;;7.63;91.57;102350.13;5075415;28;20441;-72
2022/03/16 09:03:34;;;;;;;0.40;0.40;;;;;;;7.64;91.30;102354.47;5075955;28;20534;-72
2022/03/16 09:06:02;;;;;;;0.40;0.30;;;;;;;7.66;90.70;102355.03;5075690;28;20464;-76
2022/03/16 09:08:31;;;;;;;0.40;0.30;;;;;;;7.62;91.23;102356.59;5075637;28;20445;-77
2022/03/16 09:10:57;;;;;;;0.40;0.30;;;;;;;7.66;91.36;102357.72;5075363;28;20821;-77
2022/03/16 09:13:24;;;;;;;0.40;0.30;;;;;;;7.70;91.16;102357.03;5075483;28;20445;-77
2022/03/16 09:15:52;;;;;;;0.40;0.27;;;;;;;7.67;90.98;102359.38;5075305;28;20477;-76
2022/03/16 09:18:19;;;;;;;2.10;1.90;;;;;;;7.71;90.81;102369.47;5075261;28;20449;-76
2022/03/16 09:20:46;;;;;;;0.40;0.30;;;;;;;7.79;90.90;102369.09;5075249;28;20480;-76
2022/03/16 09:23:12;;;;;;;0.40;0.30;;;;;;;7.81;90.46;102369.66;5075085;28;20594;-76
2022/03/16 09:25:41;;;;;;;0.40;0.30;;;;;;;7.77;90.54;102373.91;5074839;28;20465;-77
2022/03/16 09:28:08;;;;;;;0.40;0.30;;;;;;;7.69;91.59;102366.16;5075036;28;20453;-77
2022/03/16 09:30:34;;;;;;;0.40;0.30;;;;;;;7.83;90.99;102372.97;5075148;28;20477;-76
2022/03/16 09:33:02;;;;;;;0.40;0.30;;;;;;;7.96;90.95;102376.44;5074982;28;20469;-76
2022/03/16 09:35:30;;;;;;;0.40;0.30;;;;;;;8.02;90.38;102380.88;5074980;28;20476;-78
2022/03/16 09:37:58;;;;;;;0.40;0.27;;;;;;;7.98;89.54;102385.13;5074897;28;20543;-77
2022/03/16 09:40:24;;;;;;;9.53;6.33;;;;;;;7.98;89.62;102379.72;5075316;28;20492;-76
2022/03/16 09:42:53;;;;;;;0.40;0.30;;;;;;;8.05;89.04;102386.59;5075033;28;20445;-76
2022/03/16 09:45:20;;;;;;;0.40;0.30;;;;;;;8.11;87.92;102389.44;5074920;28;20476;-77
2022/03/16 09:47:48;;;;;;;0.40;0.30;;;;;;;8.11;88.74;102387.53;5075539;28;20450;-78
2022/03/16 09:50:18;;;;;;;0.50;0.50;;;;;;;8.14;88.03;102394.31;5080061;28;20450;-77
2022/03/16 09:52:45;;;;;;;0.40;0.30;;;;;;;8.07;88.43;102394.47;5083854;28;20549;-79
2022/03/16 09:55:12;;;;;;;0.40;0.30;;;;;;;8.07;89.01;102398.00;5084592;28;20465;-79
2022/03/16 09:57:38;;;;;;;0.40;0.30;;;;;;;8.11;88.58;102402.91;5088608;28;20452;-80
2022/03/16 10:00:06;;;;;;;0.40;0.30;;;;;;;8.16;88.06;102398.44;5083083;28;20880;-77
2022/03/16 10:02:33;;;;;;;0.40;0.30;;;;;;;8.11;88.22;102411.84;5074528;28;20815;-76
2022/03/16 10:05:00;;;;;;;0.80;0.60;;;;;;;8.20;89.78;102396.91;5074446;28;20464;-76
2022/03/16 10:07:29;;;;;;;0.40;0.30;;;;;;;8.53;88.95;102403.47;5074307;28;20839;-76
2022/03/16 10:15:25;;;;;;;0.40;0.30;;;;;;;9.39;84.26;102395.19;5075682;28;20463;-76
2022/03/16 10:17:59;;;;;;;0.40;0.27;;;;;;;9.72;82.88;102405.91;5074243;28;20460;-77
2022/03/16 10:20:28;;;;;;;0.40;0.30;;;;;;;9.90;79.94;102399.38;5074120;28;20458;-76
2022/03/16 10:22:59;;;;;;;0.40;0.30;;;;;;;10.17;78.77;102404.84;5074584;28;20452;-76
2022/03/16 10:25:26;;;;;;;0.40;0.30;;;;;;;10.39;78.67;102412.16;5073458;28;20484;-76
2022/03/16 10:27:53;;;;;;;0.40;0.20;;;;;;;10.49;78.32;102412.25;5073779;28;20445;-76
2022/03/16 10:30:20;;;;;;;0.40;0.30;;;;;;;10.52;78.43;102419.88;5074298;28;20445;-73
2022/03/16 10:32:53;;;;;;;0.40;0.30;;;;;;;10.67;78.27;102422.75;5074454;28;20444;-76
2022/03/16 10:35:21;;;;;;;0.40;0.30;;;;;;;10.70;76.93;102424.94;5074261;28;20518;-75
2022/03/16 10:37:48;;;;;;;0.40;0.30;;;;;;;10.62;77.70;102419.97;5073935;28;20477;-72
2022/03/16 10:40:20;;;;;;;0.40;0.30;;;;;;;10.67;77.06;102422.75;5074022;28;20449;-78
2022/03/16 10:48:19;;;;;;;0.40;0.30;;;;;;;10.95;76.47;102412.72;5073589;28;20409;-77
2022/03/16 10:50:47;;;;;;;0.40;0.30;;;;;;;11.11;76.81;102420.72;5074602;28;20518;-76
2022/03/16 10:53:17;;;;;;;0.40;0.30;;;;;;;11.12;73.87;102410.69;5073523;28;20482;-75
2022/03/16 10:55:47;;;;;;;0.63;0.63;;;;;;;11.26;74.61;102413.75;5073418;28;20481;-76
2022/03/16 10:58:13;;;;;;;0.93;0.93;;;;;;;11.31;75.18;102420.03;5073382;28;20495;-73
2022/03/16 11:00:41;;;;;;;0.40;0.30;;;;;;;11.33;73.51;102419.75;5073312;28;20437;-74
2022/03/16 11:03:10;;;;;;;0.40;0.30;;;;;;;11.36;72.78;102419.25;5073378;28;20445;-73
2022/03/16 11:05:37;;;;;;;0.40;0.30;;;;;;;11.45;74.01;102416.88;5073181;28;20488;-73
2022/03/16 11:08:06;;;;;;;0.40;0.30;;;;;;;11.60;72.38;102414.28;5073704;28;20465;-75
2022/03/16 11:10:34;;;;;;;0.40;0.30;;;;;;;11.75;73.62;102414.34;5074023;28;20916;-76
2022/03/16 11:15:50;;;;;;;0.40;0.30;;;;;;;12.17;72.29;102413.44;5075770;28;20515;-79
2022/03/16 11:18:18;;;;;;;0.40;0.30;;;;;;;12.43;71.77;102413.53;5074083;28;20541;-72
2022/03/16 11:20:47;;;;;;;0.40;0.20;;;;;;;12.60;70.56;102416.81;5073199;28;20469;-70
2022/03/16 11:26:15;;;;;;;0.40;0.30;;;;;;;12.92;68.66;102413.03;5073247;28;20472;-77
2022/03/16 11:28:59;;;;;;;0.40;0.20;;;;;;;13.13;68.77;102415.50;5073371;28;20434;-77
2022/03/16 11:31:27;;;;;;;0.40;0.30;;;;;;;13.41;66.69;102407.06;5073306;28;20526;-77
2022/03/16 11:33:55;;;;;;;0.40;0.30;;;;;;;13.65;66.40;102413.53;5073636;28;20456;-77
2022/03/16 11:36:30;;;;;;;0.40;0.30;;;;;;;14.03;63.64;102411.22;5073243;28;20469;-77
2022/03/16 11:38:57;;;;;;;0.40;0.30;;;;;;;14.50;62.49;102401.75;5073170;28;20449;-78
2022/03/16 11:41:26;;;;;;;0.40;0.20;;;;;;;14.80;60.74;102397.97;5073124;28;20449;-77
2022/03/16 11:44:00;;;;;;;0.40;0.30;;;;;;;15.00;59.31;102397.00;5073314;28;20468;-77
2022/03/16 11:46:32;;;;;;;0.40;0.30;;;;;;;15.13;59.92;102397.13;5073314;28;20925;-77
2022/03/16 11:49:02;;;;;;;0.40;0.30;;;;;;;15.43;59.72;102397.94;5073914;28;20487;-77